Time;durP1;ratioP1;P1;durP2;ratioP2;P2;SDS_P1;SDS_P2;PMS_P1;PMS_P2;Temp;Humidity;BMP_temperature;BMP_pressure;BME280_temperature;BME280_humidity;BME280_pressure;Samples;Min_cycle;Max_cycle;Signal;HPM_P1;HPM_P2
2022/10/17 00:00:26;;;;;;;6.55;3.92;;;19.80;99.90;;;;;;5010870;28;20114;-76
2022/10/17 00:02:54;;;;;;;6.95;3.97;;;19.80;99.90;;;;;;5013052;28;20038;-77
2022/10/17 00:05:20;;;;;;;8.50;3.88;;;19.90;99.90;;;;;;5014742;28;20080;-76
2022/10/17 00:07:46;;;;;;;7.30;3.90;;;19.90;99.90;;;;;;5012590;28;20030;-76
2022/10/17 00:10:12;;;;;;;9.23;3.67;;;19.90;99.90;;;;;;5014677;28;20478;-76
2022/10/17 00:12:38;;;;;;;8.93;3.78;;;19.90;99.90;;;;;;5013889;28;20097;-76
2022/10/17 00:15:05;;;;;;;5.90;3.70;;;19.90;99.90;;;;;;5013581;28;20026;-76
2022/10/17 00:17:31;;;;;;;7.80;3.55;;;19.90;99.90;;;;;;5029694;28;20034;-77
2022/10/17 00:20:00;;;;;;;5.43;3.47;;;19.90;99.90;;;;;;5014715;28;20092;-76
2022/10/17 00:22:26;;;;;;;5.38;3.85;;;19.90;99.90;;;;;;5014102;28;20057;-76
2022/10/17 00:24:52;;;;;;;6.82;3.70;;;19.90;99.90;;;;;;5014394;28;20120;-76
2022/10/17 00:27:18;;;;;;;5.10;3.58;;;19.90;99.90;;;;;;5014195;28;20113;-76
2022/10/17 00:29:48;;;;;;;5.68;3.30;;;19.90;99.90;;;;;;5014745;28;20038;-77
2022/10/17 00:32:14;;;;;;;6.03;3.83;;;19.90;99.90;;;;;;5013942;28;20025;-76
2022/10/17 00:34:40;;;;;;;5.50;3.20;;;19.90;99.90;;;;;;5014440;28;20407;-76
2022/10/17 00:37:06;;;;;;;4.03;2.97;;;19.90;99.90;;;;;;5029304;28;20117;-76
2022/10/17 00:39:32;;;;;;;7.82;4.13;;;19.90;99.90;;;;;;5014599;28;20117;-76
2022/10/17 00:41:57;;;;;;;7.88;4.38;;;19.90;99.90;;;;;;5014044;28;20527;-76
2022/10/17 00:44:29;;;;;;;6.32;3.92;;;19.90;99.90;;;;;;5012828;28;20076;-76
2022/10/17 00:47:09;;;;;;;5.78;3.60;;;19.90;99.90;;;;;;5015640;28;20064;-76
2022/10/17 00:49:37;;;;;;;8.68;3.95;;;19.90;99.90;;;;;;5014062;28;20030;-77
2022/10/17 00:52:08;;;;;;;5.13;3.80;;;19.90;99.90;;;;;;5014081;28;20584;-76
2022/10/17 00:54:39;;;;;;;5.85;4.03;;;19.80;99.90;;;;;;5019045;28;20045;-76
2022/10/17 00:57:05;;;;;;;5.10;3.58;;;19.90;99.90;;;;;;5014403;28;20107;-77
2022/10/17 00:59:37;;;;;;;8.77;4.32;;;19.90;99.90;;;;;;5013456;28;20029;-77
2022/10/17 01:02:07;;;;;;;9.48;4.78;;;19.90;99.90;;;;;;5013602;28;20108;-76
2022/10/17 01:04:34;;;;;;;6.13;4.20;;;19.90;99.90;;;;;;5013820;28;20028;-76
2022/10/17 01:07:00;;;;;;;9.63;4.05;;;19.90;99.90;;;;;;5013755;28;20132;-76
2022/10/17 01:09:26;;;;;;;7.90;3.88;;;19.90;99.90;;;;;;5013602;28;20026;-76
2022/10/17 01:12:06;;;;;;;6.63;3.80;;;19.90;99.90;;;;;;5011791;28;20030;-76
2022/10/17 01:14:42;;;;;;;8.55;4.18;;;19.90;99.90;;;;;;5009370;28;20037;-76
2022/10/17 01:17:15;;;;;;;8.18;4.00;;;19.90;99.90;;;;;;5028269;28;20026;-77
2022/10/17 01:20:17;;;;;;;6.05;3.75;;;19.90;99.90;;;;;;5013337;28;20136;-77
2022/10/17 01:23:00;;;;;;;5.78;3.97;;;19.90;99.90;;;;;;5013039;28;20045;-76
2022/10/17 01:25:40;;;;;;;9.40;4.15;;;19.90;99.90;;;;;;5012830;28;20105;-77
2022/10/17 01:28:35;;;;;;;6.97;3.92;;;19.90;99.90;;;;;;5013117;28;20092;-77
2022/10/17 01:31:07;;;;;;;8.73;4.38;;;19.90;99.90;;;;;;5013051;28;20034;-76
2022/10/17 01:33:48;;;;;;;6.50;4.28;;;20.00;99.90;;;;;;5027936;28;20100;-76
2022/10/17 01:36:39;;;;;;;8.00;4.53;;;20.10;99.90;;;;;;5012649;28;20076;-76
2022/10/17 01:39:42;;;;;;;7.93;4.38;;;20.00;99.90;;;;;;5030190;28;20080;-76
2022/10/17 01:42:17;;;;;;;7.53;4.13;;;20.00;99.90;;;;;;5029861;28;20025;-76
2022/10/17 01:44:56;;;;;;;5.07;3.80;;;20.00;99.90;;;;;;5030399;28;20562;-76
2022/10/17 01:47:25;;;;;;;7.10;4.15;;;20.00;99.90;;;;;;5029670;28;20037;-76
2022/10/17 01:49:54;;;;;;;4.95;3.80;;;20.00;99.90;;;;;;5023572;28;20458;-76
2022/10/17 01:52:28;;;;;;;5.80;3.75;;;20.00;99.90;;;;;;5029492;28;20111;-76
2022/10/17 01:55:02;;;;;;;6.85;4.10;;;20.00;99.90;;;;;;5030150;28;20026;-76
2022/10/17 01:57:29;;;;;;;8.07;4.10;;;20.00;99.90;;;;;;5030134;28;20065;-76
2022/10/17 01:59:56;;;;;;;9.10;4.35;;;20.00;99.90;;;;;;5030362;28;20075;-77
2022/10/17 02:02:23;;;;;;;7.22;4.43;;;20.00;99.90;;;;;;5029831;28;20041;-76
2022/10/17 02:04:50;;;;;;;7.88;4.55;;;20.10;99.90;;;;;;5029947;28;20025;-76
2022/10/17 02:07:16;;;;;;;9.70;4.82;;;20.10;99.90;;;;;;5013136;28;20021;-76
2022/10/17 02:09:42;;;;;;;8.68;4.40;;;20.10;99.90;;;;;;5030053;28;20037;-76
2022/10/17 02:12:41;;;;;;;7.35;3.95;;;20.00;99.90;;;;;;5029424;28;20037;-76
2022/10/17 02:15:53;;;;;;;7.53;3.92;;;20.00;99.90;;;;;;5012091;28;20586;-76
2022/10/17 02:18:45;;;;;;;6.22;3.75;;;20.00;99.90;;;;;;4992418;28;20022;-76
2022/10/17 02:21:16;;;;;;;7.13;3.60;;;20.00;99.90;;;;;;4999587;28;20575;-76
2022/10/17 02:23:53;;;;;;;6.55;3.80;;;20.10;99.90;;;;;;5012244;28;20116;-76
2022/10/17 02:26:34;;;;;;;5.78;3.50;;;20.10;99.90;;;;;;5011727;28;20045;-76
2022/10/17 02:29:15;;;;;;;4.65;3.90;;;20.10;99.90;;;;;;5012230;28;20515;-76
2022/10/17 02:31:57;;;;;;;10.38;4.47;;;20.10;99.90;;;;;;5011847;28;20041;-76
2022/10/17 02:34:45;;;;;;;5.75;3.85;;;20.10;99.90;;;;;;4996069;28;20030;-76
2022/10/17 02:37:16;;;;;;;13.50;4.32;;;20.10;99.90;;;;;;5009297;28;20406;-77
2022/10/17 02:39:43;;;;;;;9.52;4.35;;;20.10;99.90;;;;;;5012232;28;20049;-76
2022/10/17 02:42:12;;;;;;;9.70;3.80;;;20.10;99.90;;;;;;5009939;28;20025;-76
2022/10/17 02:44:40;;;;;;;9.10;3.78;;;20.10;99.90;;;;;;5012048;28;20030;-76
2022/10/17 02:47:24;;;;;;;9.52;4.03;;;20.10;99.90;;;;;;4998422;28;20021;-76
2022/10/17 02:49:51;;;;;;;5.90;3.88;;;20.20;99.90;;;;;;5012016;28;20030;-76
2022/10/17 02:52:47;;;;;;;6.05;3.90;;;20.10;99.90;;;;;;5011717;28;20534;-76
2022/10/17 02:55:16;;;;;;;7.90;3.97;;;20.10;99.90;;;;;;5011483;28;20080;-77
2022/10/17 02:57:51;;;;;;;8.27;3.42;;;20.10;99.90;;;;;;5011764;28;20445;-76
2022/10/17 03:00:18;;;;;;;7.28;3.70;;;20.10;99.90;;;;;;5012060;28;20108;-76
2022/10/17 03:02:46;;;;;;;5.90;3.45;;;20.10;99.90;;;;;;5011746;28;20049;-76
2022/10/17 03:05:15;;;;;;;5.47;3.33;;;20.10;99.90;;;;;;5011400;28;20025;-76
2022/10/17 03:07:41;;;;;;;7.07;3.33;;;20.00;99.90;;;;;;5026524;28;20037;-76
2022/10/17 03:10:07;;;;;;;6.78;3.83;;;20.00;99.90;;;;;;5011723;28;20030;-76
2022/10/17 03:12:33;;;;;;;6.53;3.38;;;20.10;99.90;;;;;;5011199;28;20168;-77
2022/10/17 03:14:58;;;;;;;5.32;3.33;;;20.00;99.90;;;;;;5011406;28;20101;-77
2022/10/17 03:17:24;;;;;;;4.93;3.45;;;20.10;99.90;;;;;;5011078;28;20425;-76
2022/10/17 03:19:50;;;;;;;5.05;3.30;;;20.10;99.90;;;;;;5011518;28;20025;-76
2022/10/17 03:22:16;;;;;;;9.15;3.60;;;20.00;99.90;;;;;;5011283;28;20581;-76
2022/10/17 03:24:41;;;;;;;5.78;3.22;;;20.00;99.90;;;;;;5011323;28;20026;-77
2022/10/17 03:27:07;;;;;;;6.25;3.13;;;20.00;99.90;;;;;;5011149;28;20419;-77
2022/10/17 03:29:32;;;;;;;9.63;3.83;;;20.00;99.90;;;;;;5011415;28;20392;-76
2022/10/17 03:31:58;;;;;;;8.75;3.70;;;20.00;99.90;;;;;;5011192;28;20026;-76
2022/10/17 03:34:24;;;;;;;4.18;3.20;;;20.00;99.90;;;;;;5011072;28;20034;-77
2022/10/17 03:36:50;;;;;;;4.82;3.47;;;20.00;99.90;;;;;;5013106;28;20036;-76
2022/10/17 03:39:15;;;;;;;10.18;3.65;;;20.00;99.90;;;;;;5017904;28;20025;-76
2022/10/17 03:41:41;;;;;;;10.35;3.83;;;20.00;99.90;;;;;;5017617;28;20564;-76
2022/10/17 03:44:07;;;;;;;7.50;3.72;;;20.00;99.90;;;;;;5033401;28;20025;-77
2022/10/17 03:46:32;;;;;;;6.65;3.92;;;20.00;99.90;;;;;;5017859;28;20646;-76
2022/10/17 03:48:58;;;;;;;7.65;3.85;;;20.00;99.90;;;;;;5017280;28;20029;-77
2022/10/17 03:51:24;;;;;;;7.07;3.83;;;19.90;99.90;;;;;;5004311;28;20396;-77
2022/10/17 03:53:50;;;;;;;10.85;3.63;;;19.90;99.90;;;;;;5017818;28;20061;-77
2022/10/17 03:56:18;;;;;;;8.57;4.20;;;19.90;99.90;;;;;;5017447;28;20033;-76
2022/10/17 03:58:44;;;;;;;6.35;3.63;;;19.90;99.90;;;;;;5017835;28;20099;-76
2022/10/17 04:01:12;;;;;;;9.15;3.47;;;19.80;99.90;;;;;;5017592;28;20480;-76
2022/10/17 04:03:38;;;;;;;10.15;4.65;;;19.90;99.90;;;;;;5017411;28;20511;-77
2022/10/17 04:06:05;;;;;;;5.15;3.40;;;19.90;99.90;;;;;;5017309;28;20559;-76
2022/10/17 04:08:31;;;;;;;7.63;3.40;;;19.80;99.90;;;;;;5017569;28;20030;-76
2022/10/17 04:10:58;;;;;;;8.88;3.70;;;19.80;99.90;;;;;;5017400;28;20044;-76
2022/10/17 04:13:24;;;;;;;6.07;3.75;;;19.70;99.90;;;;;;5017497;28;20034;-76
2022/10/17 04:15:54;;;;;;;6.68;4.10;;;19.70;99.90;;;;;;5032451;28;20415;-76
2022/10/17 04:18:20;;;;;;;6.20;3.77;;;19.70;99.90;;;;;;5017275;28;20025;-76
2022/10/17 04:20:46;;;;;;;6.07;3.50;;;19.70;99.90;;;;;;5017442;28;20088;-76
2022/10/17 04:23:11;;;;;;;4.82;3.40;;;19.70;99.90;;;;;;5017378;28;20057;-76
2022/10/17 04:25:37;;;;;;;7.32;3.42;;;19.70;99.90;;;;;;5017519;28;21354;-76
2022/10/17 04:28:03;;;;;;;5.93;3.67;;;19.70;99.90;;;;;;5032409;28;20458;-77
2022/10/17 04:30:29;;;;;;;10.10;4.35;;;19.70;99.90;;;;;;5017481;28;20021;-76
2022/10/17 04:32:54;;;;;;;10.68;4.47;;;19.70;99.90;;;;;;5016982;28;20514;-76
2022/10/17 04:35:20;;;;;;;9.60;4.63;;;19.80;99.90;;;;;;5016893;28;20025;-76
2022/10/17 04:37:46;;;;;;;8.10;4.18;;;19.80;99.90;;;;;;5017471;28;20049;-77
2022/10/17 04:40:12;;;;;;;5.65;3.90;;;19.70;99.90;;;;;;5032584;28;20060;-77
2022/10/17 04:42:37;;;;;;;8.90;4.00;;;19.70;99.90;;;;;;5016840;28;20499;-76
2022/10/17 04:45:04;;;;;;;6.90;4.43;;;19.80;99.90;;;;;;5017488;28;20478;-76
2022/10/17 04:47:30;;;;;;;5.30;3.92;;;19.80;99.90;;;;;;5017364;28;20041;-76
2022/10/17 04:49:55;;;;;;;6.75;3.78;;;19.80;99.90;;;;;;5012966;28;20443;-77
2022/10/17 04:52:21;;;;;;;6.72;3.67;;;19.80;99.90;;;;;;5016566;28;20205;-76
2022/10/17 04:54:47;;;;;;;7.70;4.00;;;19.70;99.90;;;;;;5017318;28;20026;-76
2022/10/17 04:57:13;;;;;;;5.57;3.30;;;19.80;99.90;;;;;;5014013;28;20618;-77
2022/10/17 04:59:39;;;;;;;6.75;3.50;;;19.80;99.90;;;;;;5013928;28;20101;-77
2022/10/17 05:02:04;;;;;;;7.07;3.40;;;19.70;99.90;;;;;;5014008;28;20108;-77
2022/10/17 05:04:30;;;;;;;4.20;3.25;;;19.70;99.90;;;;;;5012523;28;20406;-76
2022/10/17 05:06:56;;;;;;;5.43;3.15;;;19.70;99.90;;;;;;5013274;28;20030;-76
2022/10/17 05:09:21;;;;;;;6.25;3.53;;;19.80;99.90;;;;;;5013840;28;20030;-76
2022/10/17 05:11:47;;;;;;;5.88;3.20;;;19.80;99.90;;;;;;5022259;28;20022;-77
2022/10/17 05:14:14;;;;;;;6.93;4.05;;;19.80;99.90;;;;;;5013581;28;20032;-76
2022/10/17 05:16:40;;;;;;;7.00;3.97;;;19.80;99.90;;;;;;5013738;28;20092;-77
2022/10/17 05:19:06;;;;;;;6.18;4.13;;;19.80;99.90;;;;;;5012343;28;20560;-77
2022/10/17 05:21:31;;;;;;;8.02;3.95;;;19.80;99.90;;;;;;5003720;28;20029;-76
2022/10/17 05:23:57;;;;;;;4.60;3.33;;;19.70;99.90;;;;;;5013435;28;20592;-77
2022/10/17 05:26:24;;;;;;;9.52;3.80;;;19.70;99.90;;;;;;5013444;28;20060;-77
2022/10/17 05:28:51;;;;;;;5.40;3.58;;;19.70;99.90;;;;;;5012161;28;20029;-76
2022/10/17 05:31:17;;;;;;;6.18;3.63;;;19.80;99.90;;;;;;5012107;28;20029;-77
2022/10/17 05:33:43;;;;;;;11.07;4.47;;;19.80;99.90;;;;;;5013283;28;20289;-77
2022/10/17 05:36:09;;;;;;;7.57;3.65;;;19.80;99.90;;;;;;5028356;28;20539;-76
2022/10/17 05:38:35;;;;;;;8.85;3.92;;;19.80;99.90;;;;;;5012960;28;20030;-76
2022/10/17 05:41:03;;;;;;;7.38;3.35;;;19.80;99.90;;;;;;5013046;28;20089;-76
2022/10/17 05:43:29;;;;;;;5.25;3.30;;;19.70;99.90;;;;;;5013565;28;20030;-76
2022/10/17 05:45:55;;;;;;;8.32;3.88;;;19.80;99.90;;;;;;5012962;28;20018;-77
2022/10/17 05:48:21;;;;;;;8.65;3.75;;;19.70;99.90;;;;;;5013016;28;20029;-77
2022/10/17 05:50:47;;;;;;;8.13;3.92;;;19.70;99.90;;;;;;5013167;28;20029;-76
2022/10/17 05:53:13;;;;;;;7.38;3.53;;;19.70;99.90;;;;;;5018744;28;20030;-76
2022/10/17 05:55:39;;;;;;;6.85;3.65;;;19.70;99.90;;;;;;5012813;28;20018;-77
2022/10/17 05:58:05;;;;;;;6.00;3.40;;;19.70;99.90;;;;;;5012463;28;20018;-76
2022/10/17 06:00:30;;;;;;;8.13;3.58;;;19.70;99.90;;;;;;5027631;28;20551;-77
2022/10/17 06:02:56;;;;;;;4.65;3.65;;;19.70;99.90;;;;;;5012272;28;20030;-77
2022/10/17 06:05:22;;;;;;;6.47;3.45;;;19.70;99.90;;;;;;5012942;28;20028;-77
2022/10/17 06:07:52;;;;;;;5.80;3.20;;;19.70;99.90;;;;;;5012693;28;20030;-77
2022/10/17 06:10:18;;;;;;;5.07;2.92;;;19.60;99.90;;;;;;5027574;28;20022;-77
2022/10/17 06:12:44;;;;;;;5.18;3.38;;;19.60;99.90;;;;;;5012512;28;20081;-77
2022/10/17 06:15:11;;;;;;;4.65;3.35;;;19.60;99.90;;;;;;5012333;28;20018;-77
2022/10/17 06:17:37;;;;;;;4.95;2.75;;;19.60;99.90;;;;;;5027193;28;20076;-76
2022/10/17 06:20:03;;;;;;;4.45;2.80;;;19.60;99.90;;;;;;5012114;28;20026;-77
2022/10/17 06:22:29;;;;;;;4.03;3.33;;;19.60;99.90;;;;;;5012177;28;20126;-77
2022/10/17 06:24:54;;;;;;;4.90;3.08;;;19.60;99.90;;;;;;5012127;28;20085;-76
2022/10/17 06:27:20;;;;;;;5.97;3.10;;;19.60;99.90;;;;;;5012319;28;20033;-76
2022/10/17 06:29:47;;;;;;;4.63;3.05;;;19.60;99.90;;;;;;5012479;28;20493;-77
2022/10/17 06:32:13;;;;;;;5.78;2.97;;;19.60;99.90;;;;;;5011798;28;20059;-76
2022/10/17 06:34:39;;;;;;;4.95;2.63;;;19.60;99.90;;;;;;5012063;28;20092;-76
2022/10/17 06:37:04;;;;;;;4.68;2.83;;;19.60;99.90;;;;;;5012138;28;20484;-76
2022/10/17 06:39:32;;;;;;;6.55;3.70;;;19.60;99.90;;;;;;5012287;28;20451;-77
2022/10/17 06:41:59;;;;;;;6.63;3.72;;;19.60;99.90;;;;;;5012089;28;20020;-76
2022/10/17 06:44:29;;;;;;;9.05;3.88;;;19.70;99.90;;;;;;5012211;28;20025;-76
2022/10/17 06:46:55;;;;;;;8.07;3.38;;;19.70;99.90;;;;;;5011763;28;20061;-76
2022/10/17 06:49:21;;;;;;;6.07;3.85;;;19.80;99.90;;;;;;5011771;28;20479;-76
2022/10/17 06:51:46;;;;;;;6.25;3.88;;;19.80;99.90;;;;;;5011861;28;20033;-76
2022/10/17 06:54:12;;;;;;;7.43;3.25;;;19.90;99.90;;;;;;5017674;28;20120;-76
2022/10/17 06:56:38;;;;;;;5.35;3.38;;;20.00;99.90;;;;;;5027195;28;20036;-76
2022/10/17 06:59:03;;;;;;;4.72;3.25;;;20.10;99.90;;;;;;5010684;28;20508;-76
2022/10/17 07:01:30;;;;;;;4.72;3.63;;;20.10;99.90;;;;;;5010835;28;20511;-77
2022/10/17 07:03:56;;;;;;;9.85;3.83;;;20.20;99.90;;;;;;5009781;28;20123;-77
2022/10/17 07:06:23;;;;;;;4.40;2.70;;;20.30;99.90;;;;;;5009952;28;20120;-77
2022/10/17 07:08:49;;;;;;;4.13;3.10;;;20.50;99.90;;;;;;5025674;28;20112;-77
2022/10/17 07:11:18;;;;;;;5.55;3.03;;;20.80;99.90;;;;;;5008767;28;20037;-77
2022/10/17 07:13:44;;;;;;;4.50;3.08;;;21.10;99.90;;;;;;5009075;28;20065;-76
2022/10/17 07:16:11;;;;;;;5.28;3.13;;;21.40;99.90;;;;;;5007587;28;20070;-76
2022/10/17 07:18:36;;;;;;;5.25;2.88;;;21.30;99.90;;;;;;5009387;28;20068;-76
2022/10/17 07:21:02;;;;;;;5.68;2.85;;;21.20;99.90;;;;;;5027813;28;20518;-77
2022/10/17 07:23:28;;;;;;;4.45;2.42;;;21.30;99.90;;;;;;5009503;28;20041;-76
2022/10/17 07:26:01;;;;;;;4.22;2.90;;;21.30;99.90;;;;;;5009596;28;20033;-76
2022/10/17 07:28:27;;;;;;;3.90;2.90;;;21.20;99.90;;;;;;5009890;28;20029;-78
2022/10/17 07:30:54;;;;;;;3.88;2.60;;;21.20;99.90;;;;;;5008417;28;20065;-78
2022/10/17 07:33:19;;;;;;;4.55;2.70;;;21.20;99.90;;;;;;5009614;28;20135;-77
2022/10/17 07:35:45;;;;;;;6.70;3.17;;;21.30;99.90;;;;;;5008693;28;20503;-77
2022/10/17 07:38:11;;;;;;;5.95;2.65;;;21.30;99.90;;;;;;5005487;28;20164;-77
2022/10/17 07:40:36;;;;;;;4.97;2.95;;;21.20;99.90;;;;;;5008451;28;20492;-77
2022/10/17 07:43:02;;;;;;;4.55;3.45;;;21.20;99.90;;;;;;5009542;28;20112;-77
2022/10/17 07:45:28;;;;;;;4.72;3.40;;;21.40;99.90;;;;;;5022602;28;20029;-77
2022/10/17 07:47:57;;;;;;;3.90;3.10;;;21.50;99.90;;;;;;5009673;28;20169;-77
2022/10/17 07:50:23;;;;;;;4.03;2.40;;;21.60;99.90;;;;;;5001320;28;20044;-77
2022/10/17 07:52:48;;;;;;;5.65;3.00;;;21.60;99.90;;;;;;5008174;28;20014;-76
2022/10/17 07:55:14;;;;;;;6.05;3.35;;;21.40;99.90;;;;;;5007061;28;20029;-77
2022/10/17 07:57:40;;;;;;;5.45;3.20;;;21.40;99.90;;;;;;5008937;28;20238;-76
2022/10/17 08:00:07;;;;;;;4.72;3.35;;;21.30;99.90;;;;;;5007726;28;20097;-76
2022/10/17 08:02:33;;;;;;;3.80;3.38;;;21.30;99.90;;;;;;5008522;28;20022;-76
2022/10/17 08:04:58;;;;;;;8.25;3.47;;;21.20;99.90;;;;;;5008007;28;20022;-77
2022/10/17 08:07:24;;;;;;;9.02;4.00;;;21.20;99.90;;;;;;5007259;28;20435;-77
2022/10/17 08:09:50;;;;;;;8.98;4.22;;;21.30;99.90;;;;;;5007706;28;20503;-77
2022/10/17 08:12:15;;;;;;;8.50;3.20;;;21.30;99.90;;;;;;5008523;28;20100;-77
2022/10/17 08:14:42;;;;;;;4.22;3.17;;;21.50;99.90;;;;;;5005738;28;20054;-77
2022/10/17 08:17:08;;;;;;;6.10;3.60;;;21.80;99.90;;;;;;5006890;28;20088;-76
2022/10/17 08:19:36;;;;;;;4.03;3.22;;;22.10;99.90;;;;;;5007103;28;20037;-76
2022/10/17 08:22:02;;;;;;;4.68;3.13;;;22.40;99.90;;;;;;5004956;28;20045;-77
2022/10/17 08:24:28;;;;;;;6.18;2.83;;;22.70;99.90;;;;;;4997357;28;20041;-76
2022/10/17 08:26:55;;;;;;;5.32;3.00;;;23.00;99.90;;;;;;5011981;28;20506;-77
2022/10/17 08:29:20;;;;;;;3.58;2.85;;;23.30;99.90;;;;;;4999642;28;20487;-77
2022/10/17 08:31:46;;;;;;;3.75;3.25;;;23.70;99.90;;;;;;5011728;28;20040;-77
2022/10/17 08:34:12;;;;;;;5.18;2.70;;;23.60;99.90;;;;;;5012222;28;20087;-76
2022/10/17 08:36:37;;;;;;;5.93;3.50;;;23.10;99.90;;;;;;5011691;28;20100;-77
2022/10/17 08:39:03;;;;;;;7.72;3.17;;;22.60;99.90;;;;;;5027416;28;20029;-77
2022/10/17 08:41:47;;;;;;;9.38;3.25;;;22.20;99.90;;;;;;5011193;28;20029;-77
2022/10/17 08:44:34;;;;;;;5.25;3.20;;;21.90;99.90;;;;;;5011724;28;20062;-77
2022/10/17 08:47:04;;;;;;;4.60;2.78;;;21.80;99.90;;;;;;5010078;28;20503;-77
2022/10/17 08:49:54;;;;;;;5.85;3.05;;;21.70;99.90;;;;;;5010187;28;20033;-77
2022/10/17 08:52:26;;;;;;;5.22;2.80;;;21.60;99.90;;;;;;5009399;28;20026;-77
2022/10/17 08:54:51;;;;;;;6.38;3.58;;;21.60;99.90;;;;;;5010713;28;20104;-77
2022/10/17 08:57:17;;;;;;;5.68;2.97;;;21.50;99.90;;;;;;5009932;28;20065;-77
2022/10/17 08:59:44;;;;;;;8.07;3.70;;;21.50;99.90;;;;;;5011295;28;20032;-77
2022/10/17 09:02:19;;;;;;;9.50;3.60;;;21.40;99.90;;;;;;5008383;28;20516;-77
2022/10/17 09:05:18;;;;;;;5.03;3.15;;;21.50;99.90;;;;;;5010781;28;20631;-77
2022/10/17 09:07:44;;;;;;;6.45;3.42;;;21.50;99.90;;;;;;5008660;28;20033;-77
2022/10/17 09:10:28;;;;;;;6.00;3.20;;;21.50;99.90;;;;;;5010255;28;20029;-77
2022/10/17 09:13:25;;;;;;;6.47;2.95;;;21.60;99.90;;;;;;5011009;28;20041;-76
2022/10/17 09:15:51;;;;;;;6.40;2.90;;;21.60;99.90;;;;;;5003062;28;20507;-77
2022/10/17 09:18:36;;;;;;;4.68;2.80;;;21.60;99.90;;;;;;5011071;28;20033;-76
2022/10/17 09:21:28;;;;;;;6.45;3.35;;;21.70;99.90;;;;;;5010622;28;20030;-77
2022/10/17 09:24:02;;;;;;;4.90;3.13;;;21.60;99.90;;;;;;5011189;28;20064;-77
2022/10/17 09:26:28;;;;;;;7.85;3.95;;;21.60;99.90;;;;;;5009503;28;20050;-76
2022/10/17 09:28:59;;;;;;;9.55;3.97;;;21.60;99.90;;;;;;5010798;28;20074;-77
2022/10/17 09:31:31;;;;;;;6.97;3.78;;;21.60;99.90;;;;;;5025374;28;20068;-77
2022/10/17 09:34:01;;;;;;;7.03;3.50;;;21.70;99.90;;;;;;5025371;28;20112;-77
2022/10/17 09:36:29;;;;;;;6.97;3.70;;;21.70;99.90;;;;;;5025938;28;20169;-77
2022/10/17 09:39:01;;;;;;;6.57;3.38;;;21.70;99.90;;;;;;5011188;28;20500;-77
2022/10/17 09:41:38;;;;;;;9.65;4.13;;;21.70;99.90;;;;;;5009585;28;20010;-77
2022/10/17 09:44:14;;;;;;;5.63;3.22;;;21.80;99.90;;;;;;5010754;28;20037;-77
2022/10/17 09:46:46;;;;;;;4.70;3.55;;;21.70;99.90;;;;;;5009977;28;20029;-77
2022/10/17 09:49:24;;;;;;;4.18;3.03;;;21.70;99.90;;;;;;5009579;28;20029;-77
2022/10/17 09:51:50;;;;;;;8.05;3.55;;;21.70;99.90;;;;;;5015488;28;20092;-77
2022/10/17 09:54:22;;;;;;;6.32;3.05;;;21.70;99.90;;;;;;5010580;28;20058;-76
2022/10/17 09:57:00;;;;;;;5.93;3.25;;;21.70;99.90;;;;;;5009044;28;20515;-77
2022/10/17 09:59:37;;;;;;;5.00;3.10;;;21.70;99.90;;;;;;5010372;28;20026;-77
2022/10/17 10:02:12;;;;;;;5.00;3.35;;;21.70;99.90;;;;;;5024743;28;20049;-77
2022/10/17 10:04:58;;;;;;;6.28;3.17;;;21.70;99.90;;;;;;5010525;28;20041;-77
2022/10/17 10:07:26;;;;;;;5.68;3.65;;;21.70;99.90;;;;;;5006776;28;20120;-76
2022/10/17 10:09:53;;;;;;;3.65;3.25;;;21.60;99.90;;;;;;5008561;28;20032;-76
2022/10/17 10:12:30;;;;;;;6.82;3.42;;;21.60;99.90;;;;;;5024424;28;20055;-76
2022/10/17 10:14:56;;;;;;;10.20;3.72;;;21.60;99.90;;;;;;5010621;28;20110;-76
2022/10/17 10:17:41;;;;;;;7.22;3.67;;;21.50;99.90;;;;;;5009635;28;20034;-77
2022/10/17 10:20:31;;;;;;;7.55;3.42;;;21.50;99.90;;;;;;5009152;28;20018;-76
2022/10/17 10:23:20;;;;;;;6.82;3.75;;;21.50;99.90;;;;;;5009324;28;20060;-76
2022/10/17 10:25:53;;;;;;;8.05;3.47;;;21.60;99.90;;;;;;5010496;28;20124;-76
2022/10/17 10:28:20;;;;;;;6.10;3.55;;;21.60;99.90;;;;;;5010379;28;20038;-75
2022/10/17 10:30:51;;;;;;;5.90;3.20;;;21.60;99.90;;;;;;5009491;28;20034;-75
2022/10/17 10:33:20;;;;;;;5.05;2.97;;;21.50;99.90;;;;;;5010570;28;20030;-76
2022/10/17 10:36:11;;;;;;;4.45;3.40;;;21.50;99.90;;;;;;5025580;28;20038;-76
2022/10/17 10:38:41;;;;;;;6.65;3.38;;;21.50;99.90;;;;;;5010346;28;20030;-76
2022/10/17 10:41:09;;;;;;;5.72;3.42;;;21.50;99.90;;;;;;5008915;28;20026;-76
2022/10/17 10:43:39;;;;;;;6.43;3.20;;;21.40;99.90;;;;;;5010095;28;20041;-76
2022/10/17 10:46:16;;;;;;;3.72;2.80;;;21.40;99.90;;;;;;5024414;28;20519;-76
2022/10/17 10:48:54;;;;;;;6.65;3.22;;;21.40;99.90;;;;;;5012196;28;20114;-76
2022/10/17 10:51:43;;;;;;;3.83;2.55;;;21.40;99.90;;;;;;5005801;28;20100;-76
2022/10/17 10:54:24;;;;;;;6.68;2.92;;;21.40;99.90;;;;;;5010244;28;20057;-76
2022/10/17 10:56:53;;;;;;;4.38;3.08;;;21.40;99.90;;;;;;5008669;28;20044;-76
2022/10/17 10:59:26;;;;;;;5.82;3.15;;;21.40;99.90;;;;;;5010205;28;20030;-76
2022/10/17 11:01:55;;;;;;;6.03;3.70;;;21.40;99.90;;;;;;5002051;28;20099;-76
2022/10/17 11:04:26;;;;;;;4.25;3.15;;;21.40;99.90;;;;;;5020704;28;20038;-75
2022/10/17 11:07:03;;;;;;;5.72;3.33;;;21.50;99.90;;;;;;5008175;28;20026;-76
2022/10/17 11:09:59;;;;;;;7.18;3.67;;;21.50;99.90;;;;;;5009563;28;20041;-75
2022/10/17 11:12:33;;;;;;;9.27;3.55;;;21.50;99.90;;;;;;5004361;28;20310;-75
2022/10/17 11:15:16;;;;;;;5.18;3.33;;;21.50;99.90;;;;;;5009819;28;20064;-75
2022/10/17 11:17:49;;;;;;;4.45;3.47;;;21.60;99.90;;;;;;5009547;28;20054;-75
2022/10/17 11:20:50;;;;;;;5.38;3.20;;;21.60;99.90;;;;;;5009093;28;20103;-75
2022/10/17 11:23:22;;;;;;;6.80;3.28;;;21.60;99.90;;;;;;4986749;28;20054;-75
2022/10/17 11:25:51;;;;;;;5.55;3.53;;;21.70;99.90;;;;;;4971101;28;20610;-76
2022/10/17 11:28:20;;;;;;;3.35;2.58;;;21.70;99.90;;;;;;4987512;28;20053;-76
2022/10/17 11:31:05;;;;;;;5.20;2.95;;;21.70;99.90;;;;;;4986693;28;20034;-76
2022/10/17 11:34:21;;;;;;;4.30;2.75;;;21.70;99.90;;;;;;4974379;28;20042;-75
2022/10/17 11:36:51;;;;;;;4.18;2.92;;;22.00;99.90;;;;;;4987184;28;20081;-76
2022/10/17 11:39:26;;;;;;;5.93;3.45;;;22.40;99.90;;;;;;4971353;28;20022;-76
2022/10/17 11:42:00;;;;;;;5.05;3.35;;;22.60;99.90;;;;;;4986456;28;20030;-76
2022/10/17 11:44:33;;;;;;;7.53;4.10;;;22.80;99.90;;;;;;4987239;28;20026;-76
2022/10/17 11:47:31;;;;;;;4.32;2.97;;;23.00;99.90;;;;;;4987273;28;20050;-76
2022/10/17 11:50:22;;;;;;;5.93;3.45;;;23.20;99.90;;;;;;4986673;28;20101;-76
2022/10/17 11:52:57;;;;;;;7.23;4.07;;;23.10;99.90;;;;;;4980874;28;20047;-76
2022/10/17 11:55:26;;;;;;;6.68;3.88;;;23.20;99.90;;;;;;4975951;28;20049;-76
2022/10/17 11:58:10;;;;;;;7.13;4.03;;;23.40;99.90;;;;;;4988040;28;20029;-76
2022/10/17 12:01:00;;;;;;;5.88;3.55;;;23.60;99.90;;;;;;5002959;28;20111;-76
2022/10/17 12:03:47;;;;;;;9.85;4.43;;;23.70;99.90;;;;;;5008760;28;20033;-76
2022/10/17 12:06:19;;;;;;;8.70;4.13;;;23.50;99.90;;;;;;5010643;28;20120;-76
2022/10/17 12:08:54;;;;;;;4.65;3.05;;;23.30;99.90;;;;;;5002375;28;20141;-76
2022/10/17 12:11:38;;;;;;;10.77;4.15;;;23.30;99.90;;;;;;5009612;28;20032;-76
2022/10/17 12:14:42;;;;;;;8.65;3.28;;;23.30;99.90;;;;;;5010005;28;20077;-76
2022/10/17 12:17:37;;;;;;;4.85;3.38;;;23.30;99.90;;;;;;5007436;28;20042;-76
2022/10/17 12:20:24;;;;;;;7.22;3.55;;;23.50;99.90;;;;;;5009452;28;20038;-76
2022/10/17 12:22:50;;;;;;;9.07;4.32;;;23.50;99.90;;;;;;4982978;28;20104;-76
2022/10/17 12:25:28;;;;;;;9.57;4.03;;;23.70;99.90;;;;;;4989767;28;20030;-77
2022/10/17 12:28:06;;;;;;;6.63;3.58;;;23.90;99.90;;;;;;5007940;28;20042;-77
2022/10/17 12:30:33;;;;;;;7.70;4.40;;;23.80;99.90;;;;;;5012204;28;20084;-77
2022/10/17 12:33:38;;;;;;;4.15;3.65;;;23.90;99.90;;;;;;5012576;28;20033;-77
2022/10/17 12:36:25;;;;;;;8.23;3.90;;;24.10;99.90;;;;;;5015273;28;20157;-76
2022/10/17 12:39:00;;;;;;;9.40;3.90;;;24.00;99.90;;;;;;5027624;28;20032;-76
2022/10/17 12:41:52;;;;;;;7.00;3.40;;;24.00;99.90;;;;;;5011662;28;20288;-76
2022/10/17 12:44:21;;;;;;;9.10;3.85;;;24.00;99.90;;;;;;5003113;28;20046;-77
2022/10/17 12:46:48;;;;;;;6.43;3.40;;;24.00;99.90;;;;;;5012145;28;20033;-76
2022/10/17 12:49:35;;;;;;;10.45;4.43;;;24.10;99.90;;;;;;5012513;28;20024;-77
2022/10/17 12:52:19;;;;;;;5.60;2.90;;;24.20;99.90;;;;;;5011378;28;20100;-77
2022/10/17 12:54:46;;;;;;;8.35;3.97;;;24.20;99.90;;;;;;5008933;28;20041;-76
2022/10/17 12:57:21;;;;;;;6.70;2.92;;;24.20;99.90;;;;;;5011937;28;20025;-76
2022/10/17 12:59:47;;;;;;;7.90;3.47;;;24.10;99.90;;;;;;5012330;28;20029;-77
2022/10/17 13:02:20;;;;;;;7.05;3.30;;;24.20;99.90;;;;;;5027238;28;20027;-76
2022/10/17 13:04:48;;;;;;;7.35;3.30;;;24.10;99.90;;;;;;5027599;28;20116;-76
2022/10/17 13:07:21;;;;;;;7.75;3.30;;;24.00;99.90;;;;;;5012186;28;20030;-76